Peterborough, Canada
Current Conditions -  °F | °C
As of 1:00 PM on Thursday 23 Oct 2014 (Local Time) from CYPQ Reporting Station
NA  
Wind Chill: 59°   Ceiling: NA
Heat Index: 59°   Visibility: 9mi
Dew Point: 41°   Wind: 15mph
Humidity: 51%   Direction: 360°N
Pressure: 30.08"   Gusts: NA
Location:  44.3°N, 78.32°W
Report Text: CYPQ 231700Z AUTO 36013KT 9SM 15/05 A3008 RMK CLD MISG SLP189
Loading
Personal Weather Stations






























Interactive Weather Map
Tropical Storm Tracking
New forecast layout! Learn more

10-Day Weather Forecast

Advertisements
Track Severe Weather on mobile